Time;durP1;ratioP1;P1;durP2;ratioP2;P2;SDS_P1;SDS_P2;PMS_P1;PMS_P2;Temp;Humidity;BMP_temperature;BMP_pressure;BME280_temperature;BME280_humidity;BME280_pressure;Samples;Min_cycle;Max_cycle;Signal;HPM_P1;HPM_P2
2022/06/20 00:01:23;;;;;;;;;30.00;28.00;;;;;18.62;64.42;100854.00;5054073;28;45976;-56
2022/06/20 00:03:49;;;;;;;;;26.67;25.00;;;;;18.64;64.32;100868.22;5051229;28;45256;-55
2022/06/20 00:06:20;;;;;;;;;28.67;27.00;;;;;18.64;64.50;100887.06;5055498;28;45378;-56
2022/06/20 00:08:47;;;;;;;;;30.67;27.00;;;;;18.68;64.53;100902.00;5065383;28;45451;-56
2022/06/20 00:11:14;;;;;;;;;25.67;25.33;;;;;18.74;64.76;100922.19;5059977;28;46172;-55
2022/06/20 00:13:41;;;;;;;;;23.00;22.67;;;;;18.80;64.36;100927.06;5061602;28;45473;-56
2022/06/20 00:16:12;;;;;;;;;30.33;25.00;;;;;18.84;64.22;100923.13;5060149;28;45517;-55
2022/06/20 00:18:37;;;;;;;;;25.00;23.33;;;;;18.90;64.48;100934.41;5060896;28;46043;-56
2022/06/20 00:21:02;;;;;;;;;27.00;25.33;;;;;18.94;64.81;100927.78;5060180;28;69811;-56
2022/06/20 00:23:27;;;;;;;;;34.00;30.00;;;;;18.97;64.52;100924.84;5061079;28;45366;-56
2022/06/20 00:25:53;;;;;;;;;35.00;29.33;;;;;18.96;65.08;100915.03;5060279;27;66799;-55
2022/06/20 00:28:19;;;;;;;;;26.67;24.00;;;;;18.97;65.11;100895.19;5074075;28;51206;-56
2022/06/20 00:30:44;;;;;;;;;24.67;24.67;;;;;18.98;64.90;100884.28;5064749;27;47101;-56
2022/06/20 00:33:11;;;;;;;;;28.33;27.33;;;;;18.92;65.51;100868.63;5073342;27;45464;-56
2022/06/20 00:35:36;;;;;;;;;29.00;28.00;;;;;18.85;65.91;100873.66;5063984;27;45431;-54
2022/06/20 00:38:04;;;;;;;;;33.67;29.33;;;;;18.89;66.08;100909.31;5065040;28;45394;-54
2022/06/20 00:40:40;;;;;;;;;29.33;26.67;;;;;18.93;66.08;100918.84;5058748;27;46307;-54
2022/06/20 00:43:09;;;;;;;;;28.00;25.33;;;;;18.93;65.39;100913.47;5054174;28;45299;-55
2022/06/20 00:45:40;;;;;;;;;29.33;27.67;;;;;18.85;65.53;100908.69;5060336;28;45297;-56
2022/06/20 00:48:11;;;;;;;;;31.33;27.00;;;;;18.79;65.61;100913.72;5064997;28;45553;-55
2022/06/20 00:50:36;;;;;;;;;37.33;29.67;;;;;18.75;65.70;100918.50;5059878;28;46036;-56
2022/06/20 00:53:22;;;;;;;;;26.67;25.67;;;;;18.72;65.53;100923.28;5059904;28;65610;-55
2022/06/20 00:55:56;;;;;;;;;35.33;28.67;;;;;18.63;65.81;100904.22;5061441;28;45272;-56
2022/06/20 00:59:02;;;;;;;;;32.67;25.00;;;;;18.58;66.02;100919.91;5057880;28;45555;-55
2022/06/20 01:01:32;;;;;;;;;24.00;24.00;;;;;18.63;66.47;100936.53;5061290;28;45269;-56
2022/06/20 01:04:03;;;;;;;;;28.33;26.33;;;;;18.68;66.38;100950.50;5059780;28;45348;-56
2022/06/20 01:06:30;;;;;;;;;29.67;23.00;;;;;18.74;65.96;100950.97;5052479;28;45445;-57
2022/06/20 01:08:58;;;;;;;;;34.67;27.67;;;;;18.78;65.67;100955.13;5051004;28;45612;-57
2022/06/20 01:11:27;;;;;;;;;25.33;24.00;;;;;18.82;65.81;100943.94;5058276;28;46564;-57
2022/06/20 01:13:53;;;;;;;;;25.67;22.67;;;;;18.89;65.72;100936.25;5059586;28;45674;-56
2022/06/20 01:16:29;;;;;;;;;27.33;24.67;;;;;18.94;65.89;100950.22;5061241;28;45181;-57
2022/06/20 01:18:55;;;;;;;;;27.67;25.67;;;;;18.98;65.73;100940.00;5060415;28;45385;-56
2022/06/20 01:21:41;;;;;;;;;26.67;25.00;;;;;18.97;65.46;100946.41;5058441;28;46842;-56
2022/06/20 01:24:09;;;;;;;;;27.33;25.67;;;;;18.94;65.60;100927.78;5059725;28;68038;-57
2022/06/20 01:26:45;;;;;;;;;32.33;25.00;;;;;18.91;65.52;100917.25;5050817;28;45342;-57
2022/06/20 01:29:11;;;;;;;;;27.00;25.00;;;;;18.79;65.53;100900.25;5070254;28;45335;-56
2022/06/20 01:31:45;;;;;;;;;29.00;25.33;;;;;18.69;65.64;100892.06;5059370;28;46074;-57
2022/06/20 01:34:13;;;;;;;;;25.33;25.33;;;;;18.61;66.48;100865.75;5058543;28;45404;-57
2022/06/20 01:39:25;;;;;;;;;19.00;17.33;;;;;18.51;66.10;100825.28;5066366;28;45427;-56
2022/06/20 01:44:40;;;;;;;;;25.67;25.67;;;;;18.33;67.05;100770.28;5059721;28;45367;-55
2022/06/20 01:47:05;;;;;;;;;29.00;27.33;;;;;18.27;66.85;100762.72;5058945;28;45517;-56
2022/06/20 01:49:32;;;;;;;;;28.33;28.33;;;;;18.13;67.88;100743.19;5063918;28;45217;-56
2022/06/20 01:52:34;;;;;;;;;33.00;29.67;;;;;17.95;68.22;100718.66;5057563;28;46411;-56
2022/06/20 01:55:15;;;;;;;;;33.67;31.00;;;;;17.79;69.54;100673.28;5063292;28;46016;-55
2022/06/20 01:57:43;;;;;;;;;27.33;23.67;;;;;17.68;69.96;100635.66;5061837;28;45380;-56
2022/06/20 02:00:16;;;;;;;;;31.00;27.33;;;;;17.60;70.00;100630.91;5070452;28;45346;-56
2022/06/20 02:02:44;;;;;;;;;36.33;29.00;;;;;17.49;70.45;100594.13;5060812;28;45801;-56
2022/06/20 02:05:19;;;;;;;;;28.33;25.33;;;;;17.40;71.10;100537.59;5056304;28;45279;-56
2022/06/20 02:07:45;;;;;;;;;30.33;28.67;;;;;17.26;71.41;100520.78;5057744;28;45559;-55
2022/06/20 02:10:16;;;;;;;;;31.33;28.33;;;;;17.18;71.58;100515.19;5068016;28;69180;-56
2022/06/20 02:12:42;;;;;;;;;32.00;29.67;;;;;17.14;71.64;100503.84;5073628;27;45466;-56
2022/06/20 02:15:08;;;;;;;;;27.67;26.00;;;;;17.12;72.10;100539.91;5042141;28;73069;-56
2022/06/20 02:17:38;;;;;;;;;29.00;25.67;;;;;17.10;72.00;100590.22;5054491;28;45383;-56
2022/06/20 02:20:08;;;;;;;;;25.33;22.67;;;;;17.11;71.81;100656.41;5062894;28;45472;-56
2022/06/20 02:22:33;;;;;;;;;24.00;24.00;;;;;17.12;72.15;100677.78;5073675;28;46308;-55
2022/06/20 02:25:05;;;;;;;;;28.67;25.33;;;;;17.20;72.35;100707.56;5058255;28;45331;-56
2022/06/20 02:27:34;;;;;;;;;23.67;21.67;;;;;17.30;72.23;100723.84;5057630;28;45326;-55
2022/06/20 02:30:01;;;;;;;;;25.67;23.00;;;;;17.44;72.20;100738.88;5066645;28;45525;-56
2022/06/20 02:32:29;;;;;;;;;26.00;23.33;;;;;17.59;72.40;100757.44;5062571;28;46393;-55
2022/06/20 02:34:55;;;;;;;;;24.67;23.67;;;;;17.71;71.60;100751.06;5060336;28;45476;-56
2022/06/20 02:37:24;;;;;;;;;24.00;21.67;;;;;17.82;71.68;100759.13;5057361;28;45368;-56
2022/06/20 02:40:05;;;;;;;;;26.00;23.00;;;;;17.89;71.20;100770.22;5062801;28;45457;-56
2022/06/20 02:42:50;;;;;;;;;24.67;22.67;;;;;17.95;71.12;100785.03;5046458;28;45337;-55
2022/06/20 02:45:16;;;;;;;;;24.67;20.67;;;;;18.00;71.21;100802.53;5067431;28;45433;-56
2022/06/20 02:47:47;;;;;;;;;24.00;22.67;;;;;18.07;70.93;100820.84;5055481;28;69275;-55
2022/06/20 02:50:14;;;;;;;;;22.67;21.67;;;;;18.12;70.67;100827.59;5057842;28;45593;-56
2022/06/20 02:52:52;;;;;;;;;19.33;19.33;;;;;18.19;70.77;100822.56;5067163;27;46560;-56
2022/06/20 02:55:18;;;;;;;;;22.00;19.33;;;;;18.22;70.41;100824.16;5064024;28;45417;-56
2022/06/20 02:57:48;;;;;;;;;24.67;22.33;;;;;18.24;70.39;100812.28;5060180;28;45409;-56
2022/06/20 03:00:20;;;;;;;;;22.67;21.33;;;;;18.25;70.21;100796.97;5079308;27;45242;-56
2022/06/20 03:02:50;;;;;;;;;28.00;24.33;;;;;18.21;69.81;100790.13;5058980;28;47099;-56
2022/06/20 03:05:17;;;;;;;;;23.33;20.67;;;;;18.13;69.83;100813.16;5051856;28;45427;-56
2022/06/20 03:07:44;;;;;;;;;26.00;24.00;;;;;18.13;70.00;100825.75;5054913;28;45326;-56
2022/06/20 03:10:19;;;;;;;;;27.33;22.33;;;;;18.09;69.95;100835.91;5055267;28;45317;-56
2022/06/20 03:12:44;;;;;;;;;25.67;25.67;;;;;18.07;69.86;100847.78;5055086;28;45641;-54
2022/06/20 03:15:10;;;;;;;;;22.33;20.67;;;;;18.06;69.71;100852.31;5053696;28;59393;-58
2022/06/20 03:17:35;;;;;;;;;26.00;22.67;;;;;18.08;69.53;100854.88;5058477;28;45307;-55
2022/06/20 03:20:04;;;;;;;;;23.00;23.00;;;;;18.10;69.58;100855.63;5065598;28;65642;-56
2022/06/20 03:22:41;;;;;;;;;21.00;20.33;;;;;18.09;69.52;100868.19;5067658;28;46155;-55
2022/06/20 03:25:10;;;;;;;;;22.33;22.33;;;;;18.10;69.35;100866.38;5058214;28;45288;-55
2022/06/20 03:27:36;;;;;;;;;21.00;21.00;;;;;18.10;69.49;100872.59;5059652;28;45453;-56
2022/06/20 03:30:23;;;;;;;;;27.67;22.33;;;;;18.12;69.63;100884.13;5059609;28;45460;-56
2022/06/20 03:32:49;;;;;;;;;26.67;22.33;;;;;18.15;69.29;100886.56;5047038;28;46120;-57
2022/06/20 03:35:14;;;;;;;;;26.67;23.67;;;;;18.17;69.33;100889.13;5058191;28;45358;-56
2022/06/20 03:37:40;;;;;;;;;26.67;25.00;;;;;18.18;69.16;100896.22;5058619;28;45464;-54
2022/06/20 03:40:06;;;;;;;;;25.67;22.00;;;;;18.16;69.13;100898.16;5068631;28;45366;-56
2022/06/20 03:42:31;;;;;;;;;25.67;22.00;;;;;18.16;69.07;100912.50;5065528;28;45334;-57
2022/06/20 03:44:57;;;;;;;;;27.00;26.67;;;;;18.15;68.63;100909.94;5059228;28;66130;-56
2022/06/20 03:47:37;;;;;;;;;30.67;28.33;;;;;18.12;68.62;100910.16;5057631;28;45393;-56
2022/06/20 03:50:14;;;;;;;;;25.67;23.67;;;;;18.01;68.47;100916.41;5066192;28;45557;-56
2022/06/20 03:52:45;;;;;;;;;28.00;26.00;;;;;17.89;68.42;100917.38;5064757;28;46467;-57
2022/06/20 03:55:18;;;;;;;;;28.67;26.00;;;;;17.80;68.26;100918.94;5056673;28;45406;-56
2022/06/20 03:58:15;;;;;;;;;27.00;22.00;;;;;17.65;68.75;100921.84;5057237;28;45516;-56
2022/06/20 04:01:03;;;;;;;;;27.33;25.67;;;;;17.60;68.46;100929.44;5058082;28;45514;-57
2022/06/20 04:03:32;;;;;;;;;24.00;21.33;;;;;17.59;68.73;100933.09;5073152;27;46570;-56
2022/06/20 04:06:04;;;;;;;;;27.33;23.67;;;;;17.57;68.65;100932.34;5060468;28;45583;-57
2022/06/20 04:11:25;;;;;;;;;28.33;25.33;;;;;17.57;68.84;100928.81;5059911;28;45323;-57
2022/06/20 04:13:57;;;;;;;;;28.67;25.67;;;;;17.51;68.22;100932.84;5064610;28;45490;-56
2022/06/20 04:16:36;;;;;;;;;31.33;25.00;;;;;17.45;68.45;100939.53;5061751;28;45378;-55
2022/06/20 04:19:09;;;;;;;;;32.00;27.00;;;;;17.35;68.46;100944.75;5059866;28;45465;-56
2022/06/20 04:21:34;;;;;;;;;26.33;24.67;;;;;17.25;68.11;100949.13;5060437;28;45385;-56
2022/06/20 04:24:20;;;;;;;;;28.33;23.67;;;;;17.23;68.75;100959.13;5057865;28;45267;-56
2022/06/20 04:26:55;;;;;;;;;28.00;25.00;;;;;17.27;68.62;100967.81;5067333;28;45169;-56
2022/06/20 04:29:27;;;;;;;;;31.00;27.67;;;;;17.25;68.61;100969.75;5067281;28;45354;-57
2022/06/20 04:31:58;;;;;;;;;37.00;25.67;;;;;17.28;68.89;100980.28;5058132;28;45684;-56
2022/06/20 04:34:44;;;;;;;;;26.67;24.00;;;;;17.26;68.88;100963.41;5063563;28;46341;-57
2022/06/20 04:37:21;;;;;;;;;25.00;24.67;;;;;17.29;68.79;100972.09;5054227;28;45394;-57
2022/06/20 04:39:51;;;;;;;;;21.00;20.00;;;;;17.36;68.75;100980.56;5067483;27;45448;-57
2022/06/20 04:42:38;;;;;;;;;20.67;20.67;;;;;17.42;68.49;100969.34;5061648;27;45387;-56
2022/06/20 04:45:10;;;;;;;;;21.67;21.00;;;;;17.44;68.64;100964.72;5058321;28;45317;-57
2022/06/20 04:47:38;;;;;;;;;24.67;22.00;;;;;17.43;68.01;100976.44;5055069;28;45461;-56
2022/06/20 04:50:05;;;;;;;;;22.67;22.33;;;;;17.36;67.89;100984.13;5078872;27;45381;-57
2022/06/20 04:52:31;;;;;;;;;24.67;24.00;;;;;17.29;68.39;100984.69;5072366;28;45504;-57
2022/06/20 04:54:56;;;;;;;;;17.33;15.67;;;;;17.26;68.39;101001.03;5057150;27;45226;-57
2022/06/20 04:57:25;;;;;;;;;26.00;23.00;;;;;17.25;68.29;101008.25;5058890;28;52495;-57
2022/06/20 04:59:53;;;;;;;;;21.00;20.00;;;;;17.28;68.13;101013.38;5056713;28;45474;-57
2022/06/20 05:02:20;;;;;;;;;24.00;22.00;;;;;17.30;68.29;101008.78;5069416;28;45445;-56
2022/06/20 05:04:48;;;;;;;;;21.67;20.33;;;;;17.31;67.82;101021.25;5060285;28;46234;-56
2022/06/20 05:07:18;;;;;;;;;27.67;24.00;;;;;17.28;67.75;101017.91;5057592;28;45317;-57
2022/06/20 05:10:29;;;;;;;;;27.00;19.67;;;;;17.27;67.75;101018.88;5068117;27;45810;-56
2022/06/20 05:12:59;;;;;;;;;29.00;22.00;;;;;17.22;67.69;101013.84;5059551;28;45545;-57
2022/06/20 05:15:31;;;;;;;;;19.33;17.33;;;;;17.20;68.06;101016.66;5057457;28;47114;-57
2022/06/20 05:17:59;;;;;;;;;22.00;19.67;;;;;17.17;68.19;101019.56;5078387;27;45438;-57
2022/06/20 05:20:34;;;;;;;;;17.00;15.67;;;;;17.17;67.77;101024.97;5081411;27;45829;-57
2022/06/20 05:23:26;;;;;;;;;18.33;17.67;;;;;17.15;67.81;101017.97;5058683;28;45369;-56
2022/06/20 05:25:52;;;;;;;;;19.00;13.33;;;;;17.19;67.67;101014.09;5059306;28;45635;-56
2022/06/20 05:28:19;;;;;;;;;19.67;16.67;;;;;17.22;67.84;101013.00;5060107;28;45284;-57
2022/06/20 05:30:46;;;;;;;;;17.33;15.67;;;;;17.25;67.92;101012.75;5060568;28;45786;-55
2022/06/20 05:33:25;;;;;;;;;16.33;16.00;;;;;17.27;67.89;101021.56;5060433;28;45327;-56
2022/06/20 05:35:57;;;;;;;;;18.00;13.33;;;;;17.32;67.75;101032.84;5058319;28;45443;-55
2022/06/20 05:38:36;;;;;;;;;22.33;17.67;;;;;17.29;67.12;101039.31;5049183;28;45446;-56
2022/06/20 05:41:04;;;;;;;;;17.33;14.33;;;;;17.29;67.73;101042.00;5075760;28;45406;-56
2022/06/20 05:43:30;;;;;;;;;18.33;17.33;;;;;17.24;67.23;101048.69;5060160;28;45614;-55
2022/06/20 05:46:07;;;;;;;;;19.67;15.33;;;;;17.17;67.50;101053.66;5051916;28;45502;-55
2022/06/20 05:48:54;;;;;;;;;18.00;13.67;;;;;17.17;67.79;101057.22;5050030;28;45265;-56
2022/06/20 05:51:22;;;;;;;;;15.33;14.33;;;;;17.20;67.40;101065.03;5060726;28;45370;-55
2022/06/20 05:54:04;;;;;;;;;18.33;16.67;;;;;17.21;67.30;101068.59;5055137;28;45315;-55
2022/06/20 05:56:34;;;;;;;;;18.00;14.00;;;;;17.20;67.09;101064.19;5056569;28;46085;-55
2022/06/20 05:59:01;;;;;;;;;15.33;13.67;;;;;17.18;66.81;101069.69;5057233;28;45560;-55
2022/06/20 06:01:30;;;;;;;;;12.33;10.00;;;;;17.20;67.09;101065.03;5059125;28;45237;-55
2022/06/20 06:04:33;;;;;;;;;17.00;13.67;;;;;17.18;66.90;101067.00;5067133;28;45481;-56
2022/06/20 06:07:16;;;;;;;;;17.00;15.00;;;;;17.17;67.26;101073.34;5056498;28;45378;-55
2022/06/20 06:09:46;;;;;;;;;14.33;14.00;;;;;17.16;66.71;101084.19;5058592;28;45370;-55
2022/06/20 06:12:21;;;;;;;;;14.00;13.67;;;;;17.13;66.61;101087.09;5055997;28;45251;-55
2022/06/20 06:14:51;;;;;;;;;10.67;10.67;;;;;17.10;66.66;101100.75;5046253;28;45624;-56
2022/06/20 06:17:23;;;;;;;;;13.33;13.33;;;;;17.09;66.88;101110.66;5057659;28;45525;-57
2022/06/20 06:19:55;;;;;;;;;9.00;8.67;;;;;17.14;66.82;101104.94;5059715;28;45357;-56
2022/06/20 06:22:23;;;;;;;;;15.67;10.67;;;;;17.18;66.44;101107.31;5058110;28;45427;-55
2022/06/20 06:24:53;;;;;;;;;13.67;11.33;;;;;17.17;66.74;101115.50;5058122;28;45435;-54
2022/06/20 06:27:31;;;;;;;;;15.00;12.00;;;;;17.17;66.63;101124.41;5059278;28;45550;-55
2022/06/20 06:30:12;;;;;;;;;14.33;14.00;;;;;17.17;66.49;101124.41;5058474;28;45449;-55
2022/06/20 06:32:44;;;;;;;;;10.00;9.00;;;;;17.17;66.11;101126.25;5047484;28;45301;-56
2022/06/20 06:35:23;;;;;;;;;10.67;10.33;;;;;17.15;66.07;101120.09;5063476;28;45536;-57
2022/06/20 06:37:59;;;;;;;;;10.33;9.67;;;;;17.13;66.43;101130.09;5063525;27;47096;-55
2022/06/20 06:40:32;;;;;;;;;11.33;11.00;;;;;17.13;66.13;101130.09;5065908;28;45362;-55
2022/06/20 06:42:59;;;;;;;;;13.33;12.00;;;;;17.08;65.96;101134.94;5082005;27;45357;-55
2022/06/20 06:45:27;;;;;;;;;9.67;9.00;;;;;17.02;66.17;101142.47;5054647;28;45476;-55
2022/06/20 06:48:12;;;;;;;;;14.67;12.67;;;;;17.00;66.06;101149.81;5052598;28;46284;-54
2022/06/20 06:50:49;;;;;;;;;12.67;11.67;;;;;16.96;65.98;101139.38;5055614;28;45409;-55
2022/06/20 06:53:15;;;;;;;;;11.67;11.00;;;;;16.91;65.64;101136.16;5057184;28;45445;-53
2022/06/20 06:55:42;;;;;;;;;14.67;11.00;;;;;16.87;65.81;101140.88;5059224;28;45339;-55
2022/06/20 06:58:38;;;;;;;;;14.33;14.33;;;;;16.85;66.47;101140.97;5054247;28;45273;-56
2022/06/20 07:01:13;;;;;;;;;11.00;9.67;;;;;16.89;66.61;101159.56;5069459;27;45460;-57
2022/06/20 07:03:46;;;;;;;;;15.33;14.67;;;;;17.00;67.05;101163.25;5054545;28;45556;-51
2022/06/20 07:06:25;;;;;;;;;11.67;9.00;;;;;17.29;66.27;101159.44;5075918;27;45889;-53
2022/06/20 07:09:04;;;;;;;;;17.00;9.67;;;;;17.55;65.82;101164.69;5071051;28;46273;-52
2022/06/20 07:11:32;;;;;;;;;13.67;13.67;;;;;17.75;65.39;101166.78;5048533;28;45461;-53
2022/06/20 07:14:04;;;;;;;;;8.67;8.67;;;;;17.90;64.37;101185.44;5047944;28;63770;-51
2022/06/20 07:16:40;;;;;;;;;14.00;12.67;;;;;17.92;64.11;101184.34;5059436;28;45527;-51
2022/06/20 07:19:08;;;;;;;;;13.33;9.67;;;;;17.83;63.73;101188.59;5056498;28;45454;-53
2022/06/20 07:21:34;;;;;;;;;11.33;11.33;;;;;17.72;63.95;101183.16;5051377;28;45481;-49
2022/06/20 07:24:02;;;;;;;;;17.00;15.00;;;;;17.68;64.09;101187.06;5056525;28;45452;-52
2022/06/20 07:26:32;;;;;;;;;17.33;13.00;;;;;17.62;63.82;101184.81;5055884;28;45380;-50
2022/06/20 07:29:05;;;;;;;;;11.33;10.67;;;;;17.49;63.75;101187.53;5057037;28;45814;-48
2022/06/20 07:31:35;;;;;;;;;10.67;10.33;;;;;17.41;64.06;101201.53;5055738;28;47066;-46
2022/06/20 07:34:08;;;;;;;;;13.67;10.67;;;;;17.38;64.21;101203.59;5044370;28;45285;-48
2022/06/20 07:36:50;;;;;;;;;18.00;12.67;;;;;17.38;63.88;101206.28;5055989;28;45466;-49
2022/06/20 07:39:30;;;;;;;;;16.67;14.67;;;;;17.29;64.41;101214.03;5048431;28;46201;-49
2022/06/20 07:42:02;;;;;;;;;16.00;14.33;;;;;17.24;64.14;101216.19;5064264;28;45512;-48
2022/06/20 07:44:39;;;;;;;;;19.33;15.33;;;;;17.24;64.26;101223.41;5063161;27;45528;-48
2022/06/20 07:47:10;;;;;;;;;16.67;14.33;;;;;17.16;64.14;101216.75;5080141;27;46731;-51
2022/06/20 07:49:38;;;;;;;;;15.33;15.33;;;;;17.09;64.63;101222.66;5077595;27;45601;-48
2022/06/20 07:52:10;;;;;;;;;16.67;16.67;;;;;17.03;64.48;101218.59;5063073;28;45572;-48
2022/06/20 07:54:40;;;;;;;;;17.33;14.67;;;;;16.97;64.56;101230.66;5064944;28;45561;-48
2022/06/20 07:57:13;;;;;;;;;17.67;15.33;;;;;16.92;65.02;101227.41;5076986;27;45511;-48
2022/06/20 07:59:42;;;;;;;;;19.33;15.67;;;;;16.91;65.02;101228.38;5059775;28;45453;-45
2022/06/20 08:02:18;;;;;;;;;14.67;13.00;;;;;16.94;64.60;101227.31;5063096;28;45402;-48
2022/06/20 08:04:45;;;;;;;;;13.67;13.33;;;;;16.95;64.97;101220.97;5061567;28;45515;-48
2022/06/20 08:07:24;;;;;;;;;14.00;14.00;;;;;16.93;65.01;101234.50;5060265;28;45824;-50
2022/06/20 08:10:05;;;;;;;;;16.00;12.33;;;;;16.92;64.60;101232.78;5062881;28;47069;-48
2022/06/20 08:12:47;;;;;;;;;15.00;15.00;;;;;16.93;65.02;101234.50;5062384;28;45903;-49
2022/06/20 08:15:24;;;;;;;;;15.33;12.00;;;;;16.95;64.67;101237.09;5079344;27;45589;-48
2022/06/20 08:17:51;;;;;;;;;12.67;12.67;;;;;16.96;64.96;101233.41;5067491;28;46776;-47
2022/06/20 08:20:17;;;;;;;;;16.33;16.33;;;;;17.01;64.52;101236.63;5066892;28;45474;-48
2022/06/20 08:22:50;;;;;;;;;19.00;13.00;;;;;17.00;64.88;101233.09;5066718;28;45866;-48
2022/06/20 08:25:35;;;;;;;;;15.67;15.33;;;;;17.03;64.88;101223.97;5081180;27;45658;-48
2022/06/20 08:28:12;;;;;;;;;17.00;15.00;;;;;17.08;64.86;101223.63;5083363;27;45472;-49
2022/06/20 08:30:49;;;;;;;;;16.67;15.00;;;;;17.08;64.68;101231.69;5078963;27;45804;-47
2022/06/20 08:33:42;;;;;;;;;13.00;13.00;;;;;17.17;65.07;101231.06;5081598;27;45672;-47
2022/06/20 08:36:19;;;;;;;;;16.00;12.67;;;;;17.24;64.91;101224.25;5065000;28;45649;-46
2022/06/20 08:39:10;;;;;;;;;14.33;14.33;;;;;17.30;64.70;101218.44;5060177;28;45410;-46
2022/06/20 08:41:57;;;;;;;;;13.33;10.00;;;;;17.35;64.27;101226.16;5054458;28;46986;-47
2022/06/20 08:44:41;;;;;;;;;12.00;11.00;;;;;17.41;64.33;101225.72;5052127;28;45352;-46
2022/06/20 08:47:09;;;;;;;;;15.33;13.00;;;;;17.42;64.11;101232.84;5054949;28;45317;-49
2022/06/20 08:49:37;;;;;;;;;13.67;13.67;;;;;17.38;64.24;101225.09;5045178;28;45620;-47
2022/06/20 08:52:29;;;;;;;;;12.67;12.00;;;;;17.35;64.51;101235.13;5053977;28;45446;-50
2022/06/20 08:54:58;;;;;;;;;12.00;10.00;;;;;17.40;64.32;101236.59;5074584;27;45346;-49
2022/06/20 08:57:34;;;;;;;;;14.00;13.67;;;;;17.41;63.79;101243.72;5058717;28;45348;-48
2022/06/20 08:59:59;;;;;;;;;18.00;12.00;;;;;17.39;64.14;101248.31;5060204;28;45589;-49
2022/06/20 09:02:43;;;;;;;;;19.00;14.33;;;;;17.38;64.15;101243.91;5047641;28;45639;-46
2022/06/20 09:05:36;;;;;;;;;13.67;13.00;;;;;17.39;63.99;101245.63;5055706;28;45465;-48
2022/06/20 09:08:36;;;;;;;;;13.33;13.00;;;;;17.46;64.32;101253.16;5065332;28;45502;-47
2022/06/20 09:11:15;;;;;;;;;18.67;16.33;;;;;17.41;64.07;101252.63;5066174;28;46765;-48
2022/06/20 09:13:52;;;;;;;;;14.33;14.00;;;;;17.39;64.07;101262.66;5066046;28;46300;-48
2022/06/20 09:16:36;;;;;;;;;15.33;12.33;;;;;17.36;64.23;101279.84;5066259;28;46282;-47
2022/06/20 09:19:15;;;;;;;;;18.00;14.33;;;;;17.27;63.79;101280.47;5060520;28;45949;-46
2022/06/20 09:22:10;;;;;;;;;9.67;7.33;;;;;17.24;64.22;101279.88;5075598;27;45508;-49
2022/06/20 09:24:57;;;;;;;;;17.33;15.33;;;;;17.18;64.16;101279.31;5077314;27;46283;-47
2022/06/20 09:27:41;;;;;;;;;16.67;14.33;;;;;17.21;63.89;101272.88;5065910;28;45533;-46
2022/06/20 09:30:20;;;;;;;;;13.33;13.33;;;;;17.27;64.19;101272.41;5061347;28;45524;-48
2022/06/20 09:32:58;;;;;;;;;21.67;15.67;;;;;17.32;64.67;101264.88;5067508;28;45591;-46
2022/06/20 09:36:00;;;;;;;;;12.00;12.00;;;;;17.42;64.21;101273.16;5079270;27;46874;-48
2022/06/20 09:39:07;;;;;;;;;14.67;11.33;;;;;17.53;64.33;101285.84;5066929;27;45571;-47
2022/06/20 09:41:49;;;;;;;;;13.33;12.00;;;;;17.64;63.90;101290.47;5062338;28;45843;-48
2022/06/20 09:44:42;;;;;;;;;16.00;11.33;;;;;17.72;63.41;101301.53;5065403;28;45658;-46
2022/06/20 09:47:30;;;;;;;;;14.33;13.00;;;;;17.77;63.52;101296.66;5064080;28;45580;-46
2022/06/20 09:50:16;;;;;;;;;13.00;10.33;;;;;17.81;63.47;101294.63;5064407;28;45406;-48
2022/06/20 09:53:10;;;;;;;;;22.00;15.00;;;;;17.83;62.84;101298.03;5065640;28;45572;-49
2022/06/20 09:56:12;;;;;;;;;12.67;11.00;;;;;17.85;63.00;101301.50;5048799;28;45443;-47
2022/06/20 09:59:17;;;;;;;;;11.33;10.33;;;;;17.97;63.30;101295.22;5059198;28;46098;-50
2022/06/20 10:01:48;;;;;;;;;15.33;12.00;;;;;18.21;62.73;101296.22;5073537;27;45803;-50
2022/06/20 10:04:29;;;;;;;;;12.00;11.33;;;;;18.40;62.39;101301.09;5049723;28;45431;-48
2022/06/20 10:07:19;;;;;;;;;10.33;9.33;;;;;18.65;61.74;101300.09;5053700;28;45544;-49
2022/06/20 10:09:51;;;;;;;;;15.00;14.00;;;;;18.85;61.21;101296.72;5053506;28;46128;-48
2022/06/20 10:12:25;;;;;;;;;12.00;12.00;;;;;18.97;60.35;101304.88;5055561;28;45388;-51
2022/06/20 10:15:04;;;;;;;;;13.33;12.67;;;;;19.09;60.39;101305.75;5060219;28;46769;-49
2022/06/20 10:17:39;;;;;;;;;11.00;11.00;;;;;19.13;60.02;101305.38;5053607;28;45556;-51
2022/06/20 10:20:32;;;;;;;;;14.33;10.00;;;;;19.09;59.87;101301.19;5053547;28;46725;-51
2022/06/20 10:23:35;;;;;;;;;9.00;9.00;;;;;19.16;59.32;101304.28;5055273;28;45489;-50
2022/06/20 10:26:16;;;;;;;;;10.67;10.67;;;;;19.31;59.46;101294.97;5060810;28;45701;-49
2022/06/20 10:28:50;;;;;;;;;12.00;11.00;;;;;19.48;59.16;101298.19;5064850;28;45453;-52
2022/06/20 10:31:20;;;;;;;;;9.67;9.00;;;;;19.65;58.38;101299.53;5082893;27;47955;-48
2022/06/20 10:33:53;;;;;;;;;9.67;9.33;;;;;19.78;58.25;101302.09;5065015;28;45506;-48
2022/06/20 10:36:48;;;;;;;;;11.67;9.00;;;;;19.86;58.31;101302.34;5044590;28;45692;-48
2022/06/20 10:39:16;;;;;;;;;10.00;9.67;;;;;19.87;57.92;101306.75;5058810;28;46744;-48
2022/06/20 10:42:03;;;;;;;;;12.67;11.33;;;;;19.96;57.12;101303.31;5068353;27;45636;-51
2022/06/20 10:44:40;;;;;;;;;11.00;11.00;;;;;20.11;57.02;101308.44;5058588;28;45373;-51
2022/06/20 10:47:08;;;;;;;;;10.33;9.33;;;;;20.22;56.64;101299.44;5059141;28;45529;-46
2022/06/20 10:49:39;;;;;;;;;12.67;10.67;;;;;20.37;56.65;101300.84;5058697;28;45442;-49
2022/06/20 10:52:30;;;;;;;;;8.00;7.00;;;;;20.56;56.70;101302.00;5064509;28;46391;-48
2022/06/20 10:55:19;;;;;;;;;11.33;9.33;;;;;20.75;55.54;101306.72;5051976;28;45371;-50
2022/06/20 10:58:16;;;;;;;;;12.67;11.00;;;;;20.81;54.72;101300.81;5058470;28;45493;-48
2022/06/20 11:00:45;;;;;;;;;9.33;7.67;;;;;20.77;54.99;101312.88;5052455;28;45819;-52
2022/06/20 11:03:28;;;;;;;;;11.33;9.33;;;;;20.73;55.15;101312.28;5056225;28;46325;-49
2022/06/20 11:05:58;;;;;;;;;9.33;9.00;;;;;20.72;55.32;101315.97;5053599;28;45270;-48
2022/06/20 11:08:32;;;;;;;;;10.67;9.67;;;;;20.78;55.43;101315.44;5057607;28;45417;-47
2022/06/20 11:10:58;;;;;;;;;11.00;10.00;;;;;20.75;54.65;101321.09;5063583;28;45724;-49
2022/06/20 11:13:48;;;;;;;;;10.33;9.67;;;;;20.70;55.07;101323.31;5050573;28;46156;-48
2022/06/20 11:16:27;;;;;;;;;15.33;10.00;;;;;20.70;54.67;101317.09;5059099;28;45687;-48
2022/06/20 11:19:03;;;;;;;;;13.00;10.67;;;;;20.86;54.22;101316.63;5053444;28;45371;-51
2022/06/20 11:21:47;;;;;;;;;9.33;9.33;;;;;20.98;54.36;101307.47;5058217;28;45326;-48
2022/06/20 11:24:32;;;;;;;;;9.67;9.33;;;;;21.11;53.73;101321.63;5058655;28;46402;-49
2022/06/20 11:27:04;;;;;;;;;11.00;9.67;;;;;21.20;53.97;101316.41;5083345;27;45434;-48
2022/06/20 11:29:38;;;;;;;;;7.67;7.67;;;;;21.35;54.46;101325.03;5051853;28;45228;-49
2022/06/20 11:32:25;;;;;;;;;10.00;10.00;;;;;21.38;53.88;101319.34;5047116;28;45585;-48
2022/06/20 11:35:03;;;;;;;;;7.67;7.67;;;;;21.40;53.33;101322.78;5055564;28;45387;-49
2022/06/20 11:37:38;;;;;;;;;10.00;9.00;;;;;21.43;53.34;101322.50;5060776;28;45568;-49
2022/06/20 11:40:33;;;;;;;;;9.00;9.00;;;;;21.40;53.89;101320.94;5050916;28;45474;-48
2022/06/20 11:43:24;;;;;;;;;11.00;10.00;;;;;21.47;53.11;101321.25;5048481;28;45465;-48
2022/06/20 11:45:57;;;;;;;;;10.33;9.00;;;;;21.55;53.26;101321.47;5061045;28;45711;-49
2022/06/20 11:48:33;;;;;;;;;11.33;10.33;;;;;21.60;53.29;101323.75;5057346;28;45566;-48
2022/06/20 11:51:10;;;;;;;;;9.33;8.67;;;;;21.64;52.67;101331.47;5056663;28;45226;-48
2022/06/20 11:54:13;;;;;;;;;10.00;10.00;;;;;21.70;52.60;101330.06;5057966;28;45437;-47
2022/06/20 11:56:38;;;;;;;;;10.33;9.00;;;;;21.76;52.77;101332.22;5063356;28;46786;-48